Nicole Brent — WDC2615 — position and weather

sailwx.info

Track history (hours):
 
Tides and Currents Weather Stations Pressure Air Temp Water Temp Dewpoint Dewpoint Depression Visibility Wind Speed Wind Dir Waves Ship Positions

Nicole Brent

Owner: Kirby Inland Marine, LP, Houston, TX. More information available from US FCC via Universal Licensing System and Coast Guard Vessel Documentation Center.

Last reported at 2018-Jul-14 20:39 UTC. Time now 2018-Jul-16 14:45 UTC.
Position N 29°51' W 091°56'.

Length 115 m; draft 2.4 m.

Type: . MMSI: 366995620.

Date/timePositionNaut miles runAvg speedWind from/ knotsBaromVisibWave heightAir tempDewpointWater temp
2018-Jul-14 20:39N 29°51' W 091°56'1 7.2
2018-Jul-14 20:30N 29°50' W 091°57'4 7.2
2018-Jul-14 20:00N 29°49' W 092°01'4 7.1
2018-Jul-14 19:30N 29°48' W 092°05'4 7.1
2018-Jul-14 19:00N 29°47' W 092°09'3 6.4
2018-Jul-14 18:30N 29°47' W 092°12'0 0.4
2018-Jul-14 18:00N 29°47' W 092°13'1 2.1
2018-Jul-14 17:30N 29°48' W 092°14'3 6.8
2018-Jul-14 17:00N 29°49' W 092°17'3 6.2
2018-Jul-14 16:30N 29°51' W 092°20'4 6.5
2018-Jul-14 15:54N 29°53' W 092°24'28 5.2
2018-Jul-14 10:29N 29°56' W 092°56'3 5.1
2018-Jul-14 09:50N 29°56' W 093°00'1 4.1
2018-Jul-14 09:30N 29°56' W 093°02'2 3.3
2018-Jul-14 08:57N 29°56' W 093°04'2 3.5
2018-Jul-14 08:30N 29°56' W 093°06'2 3.3
2018-Jul-14 07:59N 29°56' W 093°08'2 3.4
2018-Jul-14 07:30N 29°56' W 093°09'2 3.9
2018-Jul-14 07:00N 29°58' W 093°11'2 3.6
2018-Jul-14 06:30N 29°59' W 093°12'1 2.8
2018-Jul-14 06:00N 29°60' W 093°13'2 4.0
2018-Jul-14 05:30N 30°02' W 093°15'2 3.5
2018-Jul-14 05:00N 30°03' W 093°16'2 3.7
2018-Jul-14 04:30N 30°05' W 093°17'1 2.4
2018-Jul-14 04:00N 30°05' W 093°18'1 1.7
2018-Jul-14 03:30N 30°06' W 093°19'0 0.3
2018-Jul-14 03:00N 30°06' W 093°18'0 0.0
2018-Jul-14 02:30N 30°06' W 093°18'0 0.0
2018-Jul-14 02:00N 30°06' W 093°18'0 0.0
2018-Jul-14 01:30N 30°06' W 093°18'0 0.0
2018-Jul-14 01:00N 30°06' W 093°18'0 0.0
2018-Jul-14 00:30N 30°06' W 093°18'0 0.0
2018-Jul-14 00:00N 30°06' W 093°18'0 0.0
2018-Jul-13 23:30N 30°06' W 093°18'0 0.0
2018-Jul-13 23:00N 30°06' W 093°18'0 0.0
2018-Jul-13 22:30N 30°06' W 093°18'0 0.0
2018-Jul-13 22:00N 30°06' W 093°18'0 0.0
2018-Jul-13 21:30N 30°06' W 093°18'0 0.0
2018-Jul-13 21:00N 30°06' W 093°18'0 0.0
2018-Jul-13 20:30N 30°06' W 093°18'0 0.0
2018-Jul-13 20:00N 30°06' W 093°18'0 0.0
2018-Jul-13 19:30N 30°06' W 093°18'0 0.0
2018-Jul-13 18:56N 30°06' W 093°18'0 0.0
2018-Jul-13 18:30N 30°06' W 093°18'0 0.0
2018-Jul-13 18:00N 30°06' W 093°18'0 0.0
2018-Jul-13 17:30N 30°06' W 093°18'0 0.0
2018-Jul-13 17:00N 30°06' W 093°18'0 0.0
2018-Jul-13 16:29N 30°06' W 093°18'0 0.1
2018-Jul-13 16:00N 30°06' W 093°18'0 0.0
2018-Jul-13 15:30N 30°06' W 093°18'0 0.0
2018-Jul-13 15:00N 30°06' W 093°18'0 0.1
2018-Jul-13 14:30N 30°06' W 093°18'0 0.0
2018-Jul-13 13:30N 30°06' W 093°18'0 0.0
2018-Jul-13 13:00N 30°06' W 093°18'0 0.0
2018-Jul-13 12:30N 30°06' W 093°18'0 0.0
2018-Jul-13 12:00N 30°06' W 093°18'0 0.0
2018-Jul-13 11:30N 30°06' W 093°18'0 0.0
2018-Jul-13 11:00N 30°06' W 093°18'0 0.0
2018-Jul-13 10:30N 30°06' W 093°18'0 0.0
2018-Jul-13 10:00N 30°06' W 093°18'0 0.0
2018-Jul-13 09:30N 30°06' W 093°18'0 0.0
2018-Jul-13 09:00N 30°06' W 093°18'0 0.0
2018-Jul-13 08:29N 30°06' W 093°18'0 0.0
2018-Jul-13 08:00N 30°06' W 093°18'0 0.0
2018-Jul-13 07:30N 30°06' W 093°18'0 0.0
2018-Jul-13 07:00N 30°06' W 093°18'0 0.0
2018-Jul-13 06:28N 30°06' W 093°18'0 0.0
2018-Jul-13 06:00N 30°06' W 093°18'0 0.0
2018-Jul-13 05:30N 30°06' W 093°18'0 0.0
2018-Jul-13 05:00N 30°06' W 093°18'0 0.0
2018-Jul-13 04:30N 30°06' W 093°18'0 0.0
2018-Jul-13 04:00N 30°06' W 093°18'0 0.0
2018-Jul-13 03:30N 30°06' W 093°18'0 0.0
2018-Jul-13 03:00N 30°06' W 093°18'0 0.0
2018-Jul-13 02:30N 30°06' W 093°18'0 0.0
2018-Jul-13 02:00N 30°06' W 093°18'0 0.0
2018-Jul-13 01:30N 30°06' W 093°18'0 0.0
2018-Jul-13 01:00N 30°06' W 093°18'0 0.0
2018-Jul-13 00:30N 30°06' W 093°18'0 0.0
2018-Jul-12 23:59N 30°06' W 093°18'0 0.0
2018-Jul-12 23:30N 30°06' W 093°18'0 0.0
2018-Jul-12 23:00N 30°06' W 093°18'0 0.0
2018-Jul-12 22:30N 30°06' W 093°18'0 0.0
2018-Jul-12 22:00N 30°06' W 093°18'0 0.0
2018-Jul-12 21:30N 30°06' W 093°18'0 0.0
2018-Jul-12 21:00N 30°06' W 093°18'0 0.0
2018-Jul-12 20:29N 30°06' W 093°18'0 0.0
2018-Jul-12 20:00N 30°06' W 093°18'0 0.0
2018-Jul-12 19:30N 30°06' W 093°18'0 0.0
2018-Jul-12 19:00N 30°06' W 093°18'0 0.0
2018-Jul-12 18:30N 30°06' W 093°18'0 0.0
2018-Jul-12 18:00N 30°06' W 093°18'0 0.0
2018-Jul-12 17:30N 30°06' W 093°18'0 0.0
2018-Jul-12 17:00N 30°06' W 093°18'0 0.0
2018-Jul-12 16:30N 30°06' W 093°18'0 0.0
2018-Jul-12 16:00N 30°06' W 093°18'0 0.0
2018-Jul-12 15:30N 30°06' W 093°18'0 0.0
2018-Jul-12 15:00N 30°06' W 093°18'0 0.0
2018-Jul-12 14:30N 30°06' W 093°18'0 0.0
2018-Jul-12 14:00N 30°06' W 093°18'0 0.0
2018-Jul-12 13:30N 30°06' W 093°18'0 0.0
2018-Jul-12 13:00N 30°06' W 093°18'0 0.0
2018-Jul-12 12:30N 30°06' W 093°18'0 0.0
2018-Jul-12 12:00N 30°06' W 093°18'0 0.0
2018-Jul-12 11:30N 30°06' W 093°18'0 0.0
2018-Jul-12 11:00N 30°06' W 093°18'0 0.0
2018-Jul-12 10:30N 30°06' W 093°18'0 0.0
2018-Jul-12 09:58N 30°06' W 093°18'0 0.0
2018-Jul-12 09:30N 30°06' W 093°18'0 0.0
2018-Jul-12 09:00N 30°06' W 093°18'0 0.0
2018-Jul-12 08:28N 30°06' W 093°18'0 0.0
2018-Jul-12 08:00N 30°06' W 093°18'0 0.0
2018-Jul-12 07:30N 30°06' W 093°18'0 0.0
2018-Jul-12 07:00N 30°06' W 093°18'0 0.0
2018-Jul-12 06:30N 30°06' W 093°18'0 0.0
2018-Jul-12 06:00N 30°06' W 093°18'0 0.0
2018-Jul-12 05:28N 30°06' W 093°18'0 0.0
2018-Jul-12 05:00N 30°06' W 093°18'0 0.0
2018-Jul-12 04:30N 30°06' W 093°18'0 0.0
2018-Jul-12 04:00N 30°06' W 093°18'0 0.0
2018-Jul-12 03:30N 30°06' W 093°18'0 0.0
2018-Jul-12 03:00N 30°06' W 093°18'0 0.0
2018-Jul-12 02:30N 30°06' W 093°18'0 0.8
2018-Jul-12 02:00N 30°06' W 093°19'3 5.7
2018-Jul-12 01:30N 30°04' W 093°21'3 5.3
2018-Jul-12 01:00N 30°04' W 093°24'2 3.2
2018-Jul-12 00:30N 30°04' W 093°26'3 5.3
2018-Jul-12 00:00N 30°04' W 093°29'3 4.9
2018-Jul-11 23:30N 30°04' W 093°32'2 3.2
2018-Jul-11 23:00N 30°04' W 093°34'0 0.0
2018-Jul-11 21:43N 30°04' W 093°34'0 0.0
2018-Jul-11 21:27N 30°04' W 093°34'0 0.0
2018-Jul-11 20:57N 30°04' W 093°34'0 0.0
2018-Jul-11 20:30N 30°04' W 093°34'1 1.5
2018-Jul-11 19:59N 30°04' W 093°35'3 7.3
2018-Jul-11 19:30N 30°04' W 093°38'4 7.5
2018-Jul-11 18:59N 30°03' W 093°43'3 7.1
2018-Jul-11 18:30N 30°01' W 093°46'4 7.4
2018-Jul-11 18:00N 29°59' W 093°49'3 6.9
2018-Jul-11 17:30N 29°56' W 093°52'4 7.7
2018-Jul-11 17:01N 29°53' W 093°55'4 7.8
2018-Jul-11 16:30N 29°50' W 093°57'1 2.3
2018-Jul-11 16:00N 29°49' W 093°58'0 0.0
2018-Jul-11 15:30N 29°49' W 093°58'0 0.0
2018-Jul-11 15:00N 29°49' W 093°58'0 0.0
2018-Jul-11 14:30N 29°49' W 093°58'0 0.0
2018-Jul-11 14:00N 29°49' W 093°58'0 0.0
2018-Jul-11 13:30N 29°49' W 093°58'0 0.0
2018-Jul-11 13:00N 29°49' W 093°58'0 0.9
2018-Jul-11 12:30N 29°49' W 093°59'1 1.9
2018-Jul-11 12:00N 29°49' W 093°60'3 5.0
2018-Jul-11 11:31N 29°47' W 094°02'4 7.4
2018-Jul-11 11:00N 29°45' W 094°05'4 7.3
2018-Jul-11 10:31N 29°42' W 094°08'4 7.1
2018-Jul-11 10:00N 29°41' W 094°12'3 6.9
2018-Jul-11 09:30N 29°39' W 094°15'4 7.1
2018-Jul-11 09:01N 29°38' W 094°19'4 7.2
2018-Jul-11 08:30N 29°36' W 094°23'3 5.9
2018-Jul-11 07:59N 29°34' W 094°25'3 7.0
2018-Jul-11 07:30N 29°32' W 094°29'4 7.7
2018-Jul-11 07:00N 29°30' W 094°33'3 6.9
2018-Jul-11 06:31N 29°29' W 094°36'4 7.2
2018-Jul-11 05:59N 29°27' W 094°40'3 6.5
2018-Jul-11 05:29N 29°26' W 094°43'2 4.4
2018-Jul-11 04:58N 29°24' W 094°45'3 6.4
2018-Jul-11 04:29N 29°22' W 094°48'3 6.9
2018-Jul-11 03:59N 29°25' W 094°50'4 7.8
2018-Jul-11 03:28N 29°29' W 094°52'4 7.5
2018-Jul-11 02:58N 29°32' W 094°54'3 6.9
2018-Jul-11 02:30N 29°35' W 094°56'3 6.8
2018-Jul-11 01:59N 29°38' W 094°58'3 7.4
2018-Jul-11 01:30N 29°41' W 094°59'4 6.6
2018-Jul-11 00:56N 29°44' W 095°02'4 0.3
2018-Jul-10 12:26N 29°46' W 095°06'3 6.3
2018-Jul-10 11:56N 29°44' W 095°09'2 3.7
2018-Jul-10 11:22N 29°45' W 095°11'3 7.4
2018-Jul-10 10:59N 29°44' W 095°08'2 4.5
2018-Jul-10 10:26N 29°46' W 095°06'3 5.8
2018-Jul-10 10:00N 29°44' W 095°08'3 0.2
2018-Jul-09 18:52N 29°45' W 095°11'4 7.2
2018-Jul-09 18:23N 29°44' W 095°07'2 5.9
2018-Jul-09 17:58N 29°45' W 095°04'3 6.7
2018-Jul-09 17:30N 29°43' W 095°01'3 6.8
2018-Jul-09 17:00N 29°41' W 094°59'4 7.9
2018-Jul-09 16:30N 29°37' W 094°57'4 7.6
2018-Jul-09 16:00N 29°34' W 094°55'11 7.9
2018-Jul-09 14:40N 29°24' W 094°49'1 8.0
2018-Jul-09 14:30N 29°23' W 094°49'5 5.9
2018-Jul-09 13:39N 29°25' W 094°43'2 6.8
2018-Jul-09 13:25N 29°26' W 094°42'2 5.9
2018-Jul-09 13:00N 29°28' W 094°40'10 6.5
2018-Jul-09 11:29N 29°32' W 094°29'3 6.1
2018-Jul-09 10:59N 29°34' W 094°27'3 5.3
2018-Jul-09 10:30N 29°36' W 094°25'3 5.9
2018-Jul-09 10:01N 29°37' W 094°22'3 6.4
2018-Jul-09 09:30N 29°38' W 094°18'3 6.6
2018-Jul-09 09:00N 29°40' W 094°15'3 6.8
2018-Jul-09 08:31N 29°41' W 094°11'3 6.0
2018-Jul-09 08:01N 29°42' W 094°08'4 7.0
2018-Jul-09 07:30N 29°45' W 094°05'3 6.9
2018-Jul-09 07:00N 29°47' W 094°02'4 7.2
2018-Jul-09 06:30N 29°49' W 093°59'3 5.7
2018-Jul-09 06:00N 29°51' W 093°57'4 8.3
2018-Jul-09 05:30N 29°54' W 093°54'4 8.0
2018-Jul-09 05:00N 29°58' W 093°51'3 6.7
2018-Jul-09 04:30N 29°59' W 093°55'4 7.3
2018-Jul-09 04:00N 30°01' W 093°59'2 4.9
2018-Jul-09 03:30N 30°01' W 094°01'0 0.0
2018-Jul-09 03:00N 30°01' W 094°01'0 0.0
2018-Jul-09 02:30N 30°01' W 094°01'0 0.0
2018-Jul-09 02:00N 30°01' W 094°01'0 0.0
2018-Jul-09 01:30N 30°01' W 094°01'0 0.0
2018-Jul-09 01:00N 30°01' W 094°01'0 0.0
2018-Jul-09 00:30N 30°01' W 094°01'0 0.0
2018-Jul-09 00:00N 30°01' W 094°01'0 0.0
2018-Jul-08 23:30N 30°01' W 094°01'0 0.0
2018-Jul-08 23:01N 30°01' W 094°01'0 0.0
2018-Jul-08 22:30N 30°01' W 094°01'0 0.0
2018-Jul-08 22:01N 30°01' W 094°01'0 0.0
2018-Jul-08 21:30N 30°01' W 094°01'0 0.0
2018-Jul-08 21:00N 30°01' W 094°01'0 0.0
2018-Jul-08 20:31N 30°01' W 094°01'0 0.0
2018-Jul-08 20:00N 30°01' W 094°01'0 0.0
2018-Jul-08 19:30N 30°01' W 094°01'0 0.0
2018-Jul-08 19:01N 30°01' W 094°01'0 0.0
2018-Jul-08 18:30N 30°01' W 094°01'0 0.0
2018-Jul-08 18:00N 30°01' W 094°01'1 2.8
2018-Jul-08 17:30N 30°01' W 093°60'4 7.3
2018-Jul-08 17:00N 29°60' W 093°56'4 8.2
2018-Jul-08 16:30N 29°58' W 093°51'4 7.1
2018-Jul-08 16:00N 29°55' W 093°53'4 8.0
2018-Jul-08 15:30N 29°52' W 093°56'3 6.9
2018-Jul-08 15:00N 29°49' W 093°58'1 1.1
2018-Jul-08 14:30N 29°49' W 093°59'0 0.0
2018-Jul-08 14:00N 29°49' W 093°59'0 0.3
2018-Jul-08 13:30N 29°49' W 093°59'3 7.0
2018-Jul-08 13:00N 29°47' W 094°02'4 7.7
2018-Jul-08 12:30N 29°44' W 094°06'4 7.7
2018-Jul-08 12:00N 29°42' W 094°09'4 7.3
2018-Jul-08 11:30N 29°40' W 094°13'3 6.0
2018-Jul-08 11:00N 29°39' W 094°16'3 6.9
2018-Jul-08 10:30N 29°37' W 094°19'4 7.1
2018-Jul-08 10:00N 29°36' W 094°23'3 5.0
2018-Jul-08 09:30N 29°34' W 094°25'3 5.8
2018-Jul-08 09:00N 29°33' W 094°28'20 6.3
2018-Jul-08 05:47N 29°25' W 094°50'4 8.5
2018-Jul-08 05:18N 29°29' W 094°52'3 8.7
2018-Jul-08 04:58N 29°31' W 094°53'4 8.6
2018-Jul-08 04:30N 29°34' W 094°56'4 8.5
2018-Jul-08 04:00N 29°38' W 094°58'5 8.8
2018-Jul-08 03:29N 29°42' W 095°01'4 8.2
2018-Jul-08 02:59N 29°45' W 095°04'4 6.8
2018-Jul-08 02:21N 29°44' W 095°09'  
Track history (hours):
 
Tides and Currents Weather Stations Pressure Air Temp Water Temp Dewpoint Dewpoint Depression Visibility Wind Speed Wind Dir Waves Ship Positions

Nicole Brent

Owner: Kirby Inland Marine, LP, Houston, TX. More information available from US FCC via Universal Licensing System and Coast Guard Vessel Documentation Center.

Last reported at 2018-Jul-14 20:39 UTC. Time now 2018-Jul-16 14:45 UTC.
Position N 29°51' W 091°56'.

Length 115 m; draft 2.4 m.

Type: . MMSI: 366995620.

Date/timePositionNaut miles runAvg speedWind from/ knotsBaromVisibWave heightAir tempDewpointWater temp
2018-Jul-14 20:39N 29°51' W 091°56'1 7.2
2018-Jul-14 20:30N 29°50' W 091°57'4 7.2
2018-Jul-14 20:00N 29°49' W 092°01'4 7.1
2018-Jul-14 19:30N 29°48' W 092°05'4 7.1
2018-Jul-14 19:00N 29°47' W 092°09'3 6.4
2018-Jul-14 18:30N 29°47' W 092°12'0 0.4
2018-Jul-14 18:00N 29°47' W 092°13'1 2.1
2018-Jul-14 17:30N 29°48' W 092°14'3 6.8
2018-Jul-14 17:00N 29°49' W 092°17'3 6.2
2018-Jul-14 16:30N 29°51' W 092°20'4 6.5
2018-Jul-14 15:54N 29°53' W 092°24'28 5.2
2018-Jul-14 10:29N 29°56' W 092°56'3 5.1
2018-Jul-14 09:50N 29°56' W 093°00'1 4.1
2018-Jul-14 09:30N 29°56' W 093°02'2 3.3
2018-Jul-14 08:57N 29°56' W 093°04'2 3.5
2018-Jul-14 08:30N 29°56' W 093°06'2 3.3
2018-Jul-14 07:59N 29°56' W 093°08'2 3.4
2018-Jul-14 07:30N 29°56' W 093°09'2 3.9
2018-Jul-14 07:00N 29°58' W 093°11'2 3.6
2018-Jul-14 06:30N 29°59' W 093°12'1 2.8
2018-Jul-14 06:00N 29°60' W 093°13'2 4.0
2018-Jul-14 05:30N 30°02' W 093°15'2 3.5
2018-Jul-14 05:00N 30°03' W 093°16'2 3.7
2018-Jul-14 04:30N 30°05' W 093°17'1 2.4
2018-Jul-14 04:00N 30°05' W 093°18'1 1.7
2018-Jul-14 03:30N 30°06' W 093°19'0 0.3
2018-Jul-14 03:00N 30°06' W 093°18'0 0.0
2018-Jul-14 02:30N 30°06' W 093°18'0 0.0
2018-Jul-14 02:00N 30°06' W 093°18'0 0.0
2018-Jul-14 01:30N 30°06' W 093°18'0 0.0
2018-Jul-14 01:00N 30°06' W 093°18'0 0.0
2018-Jul-14 00:30N 30°06' W 093°18'0 0.0
2018-Jul-14 00:00N 30°06' W 093°18'0 0.0
2018-Jul-13 23:30N 30°06' W 093°18'0 0.0
2018-Jul-13 23:00N 30°06' W 093°18'0 0.0
2018-Jul-13 22:30N 30°06' W 093°18'0 0.0
2018-Jul-13 22:00N 30°06' W 093°18'0 0.0
2018-Jul-13 21:30N 30°06' W 093°18'0 0.0
2018-Jul-13 21:00N 30°06' W 093°18'0 0.0
2018-Jul-13 20:30N 30°06' W 093°18'0 0.0
2018-Jul-13 20:00N 30°06' W 093°18'0 0.0
2018-Jul-13 19:30N 30°06' W 093°18'0 0.0
2018-Jul-13 18:56N 30°06' W 093°18'0 0.0
2018-Jul-13 18:30N 30°06' W 093°18'0 0.0
2018-Jul-13 18:00N 30°06' W 093°18'0 0.0
2018-Jul-13 17:30N 30°06' W 093°18'0 0.0
2018-Jul-13 17:00N 30°06' W 093°18'0 0.0
2018-Jul-13 16:29N 30°06' W 093°18'0 0.1
2018-Jul-13 16:00N 30°06' W 093°18'0 0.0
2018-Jul-13 15:30N 30°06' W 093°18'0 0.0
2018-Jul-13 15:00N 30°06' W 093°18'0 0.1
2018-Jul-13 14:30N 30°06' W 093°18'0 0.0
2018-Jul-13 13:30N 30°06' W 093°18'0 0.0
2018-Jul-13 13:00N 30°06' W 093°18'0 0.0
2018-Jul-13 12:30N 30°06' W 093°18'0 0.0
2018-Jul-13 12:00N 30°06' W 093°18'0 0.0
2018-Jul-13 11:30N 30°06' W 093°18'0 0.0
2018-Jul-13 11:00N 30°06' W 093°18'0 0.0
2018-Jul-13 10:30N 30°06' W 093°18'0 0.0
2018-Jul-13 10:00N 30°06' W 093°18'0 0.0
2018-Jul-13 09:30N 30°06' W 093°18'0 0.0
2018-Jul-13 09:00N 30°06' W 093°18'0 0.0
2018-Jul-13 08:29N 30°06' W 093°18'0 0.0
2018-Jul-13 08:00N 30°06' W 093°18'0 0.0
2018-Jul-13 07:30N 30°06' W 093°18'0 0.0
2018-Jul-13 07:00N 30°06' W 093°18'0 0.0
2018-Jul-13 06:28N 30°06' W 093°18'0 0.0
2018-Jul-13 06:00N 30°06' W 093°18'0 0.0
2018-Jul-13 05:30N 30°06' W 093°18'0 0.0
2018-Jul-13 05:00N 30°06' W 093°18'0 0.0
2018-Jul-13 04:30N 30°06' W 093°18'0 0.0
2018-Jul-13 04:00N 30°06' W 093°18'0 0.0
2018-Jul-13 03:30N 30°06' W 093°18'0 0.0
2018-Jul-13 03:00N 30°06' W 093°18'0 0.0
2018-Jul-13 02:30N 30°06' W 093°18'0 0.0
2018-Jul-13 02:00N 30°06' W 093°18'0 0.0
2018-Jul-13 01:30N 30°06' W 093°18'0 0.0
2018-Jul-13 01:00N 30°06' W 093°18'0 0.0
2018-Jul-13 00:30N 30°06' W 093°18'0 0.0
2018-Jul-12 23:59N 30°06' W 093°18'0 0.0
2018-Jul-12 23:30N 30°06' W 093°18'0 0.0
2018-Jul-12 23:00N 30°06' W 093°18'0 0.0
2018-Jul-12 22:30N 30°06' W 093°18'0 0.0
2018-Jul-12 22:00N 30°06' W 093°18'0 0.0
2018-Jul-12 21:30N 30°06' W 093°18'0 0.0
2018-Jul-12 21:00N 30°06' W 093°18'0 0.0
2018-Jul-12 20:29N 30°06' W 093°18'0 0.0
2018-Jul-12 20:00N 30°06' W 093°18'0 0.0
2018-Jul-12 19:30N 30°06' W 093°18'0 0.0
2018-Jul-12 19:00N 30°06' W 093°18'0 0.0
2018-Jul-12 18:30N 30°06' W 093°18'0 0.0
2018-Jul-12 18:00N 30°06' W 093°18'0 0.0
2018-Jul-12 17:30N 30°06' W 093°18'0 0.0
2018-Jul-12 17:00N 30°06' W 093°18'0 0.0
2018-Jul-12 16:30N 30°06' W 093°18'0 0.0
2018-Jul-12 16:00N 30°06' W 093°18'0 0.0
2018-Jul-12 15:30N 30°06' W 093°18'0 0.0
2018-Jul-12 15:00N 30°06' W 093°18'0 0.0
2018-Jul-12 14:30N 30°06' W 093°18'0 0.0
2018-Jul-12 14:00N 30°06' W 093°18'0 0.0
2018-Jul-12 13:30N 30°06' W 093°18'0 0.0
2018-Jul-12 13:00N 30°06' W 093°18'0 0.0
2018-Jul-12 12:30N 30°06' W 093°18'0 0.0
2018-Jul-12 12:00N 30°06' W 093°18'0 0.0
2018-Jul-12 11:30N 30°06' W 093°18'0 0.0
2018-Jul-12 11:00N 30°06' W 093°18'0 0.0
2018-Jul-12 10:30N 30°06' W 093°18'0 0.0
2018-Jul-12 09:58N 30°06' W 093°18'0 0.0
2018-Jul-12 09:30N 30°06' W 093°18'0 0.0
2018-Jul-12 09:00N 30°06' W 093°18'0 0.0
2018-Jul-12 08:28N 30°06' W 093°18'0 0.0
2018-Jul-12 08:00N 30°06' W 093°18'0 0.0
2018-Jul-12 07:30N 30°06' W 093°18'0 0.0
2018-Jul-12 07:00N 30°06' W 093°18'0 0.0
2018-Jul-12 06:30N 30°06' W 093°18'0 0.0
2018-Jul-12 06:00N 30°06' W 093°18'0 0.0
2018-Jul-12 05:28N 30°06' W 093°18'0 0.0
2018-Jul-12 05:00N 30°06' W 093°18'0 0.0
2018-Jul-12 04:30N 30°06' W 093°18'0 0.0
2018-Jul-12 04:00N 30°06' W 093°18'0 0.0
2018-Jul-12 03:30N 30°06' W 093°18'0 0.0
2018-Jul-12 03:00N 30°06' W 093°18'0 0.0
2018-Jul-12 02:30N 30°06' W 093°18'0 0.8
2018-Jul-12 02:00N 30°06' W 093°19'3 5.7
2018-Jul-12 01:30N 30°04' W 093°21'3 5.3
2018-Jul-12 01:00N 30°04' W 093°24'2 3.2
2018-Jul-12 00:30N 30°04' W 093°26'3 5.3
2018-Jul-12 00:00N 30°04' W 093°29'3 4.9
2018-Jul-11 23:30N 30°04' W 093°32'2 3.2
2018-Jul-11 23:00N 30°04' W 093°34'0 0.0
2018-Jul-11 21:43N 30°04' W 093°34'0 0.0
2018-Jul-11 21:27N 30°04' W 093°34'0 0.0
2018-Jul-11 20:57N 30°04' W 093°34'0 0.0
2018-Jul-11 20:30N 30°04' W 093°34'1 1.5
2018-Jul-11 19:59N 30°04' W 093°35'3 7.3
2018-Jul-11 19:30N 30°04' W 093°38'4 7.5
2018-Jul-11 18:59N 30°03' W 093°43'3 7.1
2018-Jul-11 18:30N 30°01' W 093°46'4 7.4
2018-Jul-11 18:00N 29°59' W 093°49'3 6.9
2018-Jul-11 17:30N 29°56' W 093°52'4 7.7
2018-Jul-11 17:01N 29°53' W 093°55'4 7.8
2018-Jul-11 16:30N 29°50' W 093°57'1 2.3
2018-Jul-11 16:00N 29°49' W 093°58'0 0.0
2018-Jul-11 15:30N 29°49' W 093°58'0 0.0
2018-Jul-11 15:00N 29°49' W 093°58'0 0.0
2018-Jul-11 14:30N 29°49' W 093°58'0 0.0
2018-Jul-11 14:00N 29°49' W 093°58'0 0.0
2018-Jul-11 13:30N 29°49' W 093°58'0 0.0
2018-Jul-11 13:00N 29°49' W 093°58'0 0.9
2018-Jul-11 12:30N 29°49' W 093°59'1 1.9
2018-Jul-11 12:00N 29°49' W 093°60'3 5.0
2018-Jul-11 11:31N 29°47' W 094°02'4 7.4
2018-Jul-11 11:00N 29°45' W 094°05'4 7.3
2018-Jul-11 10:31N 29°42' W 094°08'4 7.1
2018-Jul-11 10:00N 29°41' W 094°12'3 6.9
2018-Jul-11 09:30N 29°39' W 094°15'4 7.1
2018-Jul-11 09:01N 29°38' W 094°19'4 7.2
2018-Jul-11 08:30N 29°36' W 094°23'3 5.9
2018-Jul-11 07:59N 29°34' W 094°25'3 7.0
2018-Jul-11 07:30N 29°32' W 094°29'4 7.7
2018-Jul-11 07:00N 29°30' W 094°33'3 6.9
2018-Jul-11 06:31N 29°29' W 094°36'4 7.2
2018-Jul-11 05:59N 29°27' W 094°40'3 6.5
2018-Jul-11 05:29N 29°26' W 094°43'2 4.4
2018-Jul-11 04:58N 29°24' W 094°45'3 6.4
2018-Jul-11 04:29N 29°22' W 094°48'3 6.9
2018-Jul-11 03:59N 29°25' W 094°50'4 7.8
2018-Jul-11 03:28N 29°29' W 094°52'4 7.5
2018-Jul-11 02:58N 29°32' W 094°54'3 6.9
2018-Jul-11 02:30N 29°35' W 094°56'3 6.8
2018-Jul-11 01:59N 29°38' W 094°58'3 7.4
2018-Jul-11 01:30N 29°41' W 094°59'4 6.6
2018-Jul-11 00:56N 29°44' W 095°02'4 0.3
2018-Jul-10 12:26N 29°46' W 095°06'3 6.3
2018-Jul-10 11:56N 29°44' W 095°09'2 3.7
2018-Jul-10 11:22N 29°45' W 095°11'3 7.4
2018-Jul-10 10:59N 29°44' W 095°08'2 4.5
2018-Jul-10 10:26N 29°46' W 095°06'3 5.8
2018-Jul-10 10:00N 29°44' W 095°08'3 0.2
2018-Jul-09 18:52N 29°45' W 095°11'4 7.2
2018-Jul-09 18:23N 29°44' W 095°07'2 5.9
2018-Jul-09 17:58N 29°45' W 095°04'3 6.7
2018-Jul-09 17:30N 29°43' W 095°01'3 6.8
2018-Jul-09 17:00N 29°41' W 094°59'4 7.9
2018-Jul-09 16:30N 29°37' W 094°57'4 7.6
2018-Jul-09 16:00N 29°34' W 094°55'11 7.9
2018-Jul-09 14:40N 29°24' W 094°49'1 8.0
2018-Jul-09 14:30N 29°23' W 094°49'5 5.9
2018-Jul-09 13:39N 29°25' W 094°43'2 6.8
2018-Jul-09 13:25N 29°26' W 094°42'2 5.9
2018-Jul-09 13:00N 29°28' W 094°40'10 6.5
2018-Jul-09 11:29N 29°32' W 094°29'3 6.1
2018-Jul-09 10:59N 29°34' W 094°27'3 5.3
2018-Jul-09 10:30N 29°36' W 094°25'3 5.9
2018-Jul-09 10:01N 29°37' W 094°22'3 6.4
2018-Jul-09 09:30N 29°38' W 094°18'3 6.6
2018-Jul-09 09:00N 29°40' W 094°15'3 6.8
2018-Jul-09 08:31N 29°41' W 094°11'3 6.0
2018-Jul-09 08:01N 29°42' W 094°08'4 7.0
2018-Jul-09 07:30N 29°45' W 094°05'3 6.9
2018-Jul-09 07:00N 29°47' W 094°02'4 7.2
2018-Jul-09 06:30N 29°49' W 093°59'3 5.7
2018-Jul-09 06:00N 29°51' W 093°57'4 8.3
2018-Jul-09 05:30N 29°54' W 093°54'4 8.0
2018-Jul-09 05:00N 29°58' W 093°51'3 6.7
2018-Jul-09 04:30N 29°59' W 093°55'4 7.3
2018-Jul-09 04:00N 30°01' W 093°59'2 4.9
2018-Jul-09 03:30N 30°01' W 094°01'0 0.0
2018-Jul-09 03:00N 30°01' W 094°01'0 0.0
2018-Jul-09 02:30N 30°01' W 094°01'0 0.0
2018-Jul-09 02:00N 30°01' W 094°01'0 0.0
2018-Jul-09 01:30N 30°01' W 094°01'0 0.0
2018-Jul-09 01:00N 30°01' W 094°01'0 0.0
2018-Jul-09 00:30N 30°01' W 094°01'0 0.0
2018-Jul-09 00:00N 30°01' W 094°01'0 0.0
2018-Jul-08 23:30N 30°01' W 094°01'0 0.0
2018-Jul-08 23:01N 30°01' W 094°01'0 0.0
2018-Jul-08 22:30N 30°01' W 094°01'0 0.0
2018-Jul-08 22:01N 30°01' W 094°01'0 0.0
2018-Jul-08 21:30N 30°01' W 094°01'0 0.0
2018-Jul-08 21:00N 30°01' W 094°01'0 0.0
2018-Jul-08 20:31N 30°01' W 094°01'0 0.0
2018-Jul-08 20:00N 30°01' W 094°01'0 0.0
2018-Jul-08 19:30N 30°01' W 094°01'0 0.0
2018-Jul-08 19:01N 30°01' W 094°01'0 0.0
2018-Jul-08 18:30N 30°01' W 094°01'0 0.0
2018-Jul-08 18:00N 30°01' W 094°01'1 2.8
2018-Jul-08 17:30N 30°01' W 093°60'4 7.3
2018-Jul-08 17:00N 29°60' W 093°56'4 8.2
2018-Jul-08 16:30N 29°58' W 093°51'4 7.1
2018-Jul-08 16:00N 29°55' W 093°53'4 8.0
2018-Jul-08 15:30N 29°52' W 093°56'3 6.9
2018-Jul-08 15:00N 29°49' W 093°58'1 1.1
2018-Jul-08 14:30N 29°49' W 093°59'0 0.0
2018-Jul-08 14:00N 29°49' W 093°59'0 0.3
2018-Jul-08 13:30N 29°49' W 093°59'3 7.0
2018-Jul-08 13:00N 29°47' W 094°02'4 7.7
2018-Jul-08 12:30N 29°44' W 094°06'4 7.7
2018-Jul-08 12:00N 29°42' W 094°09'4 7.3
2018-Jul-08 11:30N 29°40' W 094°13'3 6.0
2018-Jul-08 11:00N 29°39' W 094°16'3 6.9
2018-Jul-08 10:30N 29°37' W 094°19'4 7.1
2018-Jul-08 10:00N 29°36' W 094°23'3 5.0
2018-Jul-08 09:30N 29°34' W 094°25'3 5.8
2018-Jul-08 09:00N 29°33' W 094°28'20 6.3
2018-Jul-08 05:47N 29°25' W 094°50'4 8.5
2018-Jul-08 05:18N 29°29' W 094°52'3 8.7
2018-Jul-08 04:58N 29°31' W 094°53'4 8.6
2018-Jul-08 04:30N 29°34' W 094°56'4 8.5
2018-Jul-08 04:00N 29°38' W 094°58'5 8.8
2018-Jul-08 03:29N 29°42' W 095°01'4 8.2
2018-Jul-08 02:59N 29°45' W 095°04'4 6.8
2018-Jul-08 02:21N 29°44' W 095°09'  

Dump ship's entire track history